sensor_id;sensor_type;location;lat;lon;timestamp;temperature;humidity
25568;DHT22;13455;51.480;7.594;2024-03-23T01:04:57;8.00;99.90
25568;DHT22;13455;51.480;7.594;2024-03-23T01:07:23;8.00;99.90
25568;DHT22;13455;51.480;7.594;2024-03-23T01:09:49;7.90;99.90
25568;DHT22;13455;51.480;7.594;2024-03-23T01:12:14;7.90;99.90
25568;DHT22;13455;51.480;7.594;2024-03-23T01:14:40;7.80;99.90
25568;DHT22;13455;51.480;7.594;2024-03-23T01:17:05;8.50;99.90
25568;DHT22;13455;51.480;7.594;2024-03-23T01:19:31;7.70;99.90
25568;DHT22;13455;51.480;7.594;2024-03-23T01:21:57;7.60;99.90
25568;DHT22;13455;51.480;7.594;2024-03-23T01:24:22;7.60;99.90
25568;DHT22;13455;51.480;7.594;2024-03-23T01:26:48;7.60;99.90
25568;DHT22;13455;51.480;7.594;2024-03-23T01:29:14;7.60;99.90
25568;DHT22;13455;51.480;7.594;2024-03-23T01:31:39;7.50;99.90
25568;DHT22;13455;51.480;7.594;2024-03-23T01:34:05;7.50;99.90
25568;DHT22;13455;51.480;7.594;2024-03-23T01:36:31;7.50;99.90
25568;DHT22;13455;51.480;7.594;2024-03-23T01:38:57;7.50;99.90
25568;DHT22;13455;51.480;7.594;2024-03-23T01:41:24;7.50;99.90
25568;DHT22;13455;51.480;7.594;2024-03-23T01:43:50;7.30;99.90
25568;DHT22;13455;51.480;7.594;2024-03-23T01:46:16;7.30;99.90
25568;DHT22;13455;51.480;7.594;2024-03-23T01:48:42;7.30;99.90
25568;DHT22;13455;51.480;7.594;2024-03-23T01:51:08;7.30;99.90
25568;DHT22;13455;51.480;7.594;2024-03-23T01:53:34;7.60;99.90
25568;DHT22;13455;51.480;7.594;2024-03-23T01:56:00;7.30;99.90
25568;DHT22;13455;51.480;7.594;2024-03-23T01:58:28;7.40;99.90
25568;DHT22;13455;51.480;7.594;2024-03-23T02:00:54;7.30;99.90
25568;DHT22;13455;51.480;7.594;2024-03-23T02:03:23;7.40;99.90
25568;DHT22;13455;51.480;7.594;2024-03-23T02:05:50;7.40;99.90
25568;DHT22;13455;51.480;7.594;2024-03-23T02:08:17;7.80;99.90
25568;DHT22;13455;51.480;7.594;2024-03-23T02:10:43;7.30;99.90
25568;DHT22;13455;51.480;7.594;2024-03-23T02:13:09;7.70;99.90
25568;DHT22;13455;51.480;7.594;2024-03-23T02:15:35;7.30;99.90
25568;DHT22;13455;51.480;7.594;2024-03-23T02:18:00;7.30;99.90
25568;DHT22;13455;51.480;7.594;2024-03-23T02:20:26;7.30;99.90
25568;DHT22;13455;51.480;7.594;2024-03-23T02:22:53;7.30;99.90
25568;DHT22;13455;51.480;7.594;2024-03-23T02:25:19;7.30;99.90
25568;DHT22;13455;51.480;7.594;2024-03-23T02:27:44;7.30;99.90
25568;DHT22;13455;51.480;7.594;2024-03-23T02:30:10;7.20;99.90
25568;DHT22;13455;51.480;7.594;2024-03-23T02:32:36;7.20;99.90
25568;DHT22;13455;51.480;7.594;2024-03-23T02:35:01;7.10;99.90
25568;DHT22;13455;51.480;7.594;2024-03-23T02:37:27;7.20;99.90
25568;DHT22;13455;51.480;7.594;2024-03-23T02:39:53;7.10;99.90
25568;DHT22;13455;51.480;7.594;2024-03-23T02:42:18;7.10;99.90
25568;DHT22;13455;51.480;7.594;2024-03-23T02:44:47;7.20;99.90
25568;DHT22;13455;51.480;7.594;2024-03-23T02:47:12;7.10;99.90
25568;DHT22;13455;51.480;7.594;2024-03-23T02:49:38;7.30;99.90
25568;DHT22;13455;51.480;7.594;2024-03-23T02:52:04;7.10;99.90
25568;DHT22;13455;51.480;7.594;2024-03-23T02:54:29;7.10;99.90
25568;DHT22;13455;51.480;7.594;2024-03-23T02:56:55;7.20;99.90
25568;DHT22;13455;51.480;7.594;2024-03-23T02:59:21;7.20;99.90
25568;DHT22;13455;51.480;7.594;2024-03-23T03:01:47;7.20;99.90
25568;DHT22;13455;51.480;7.594;2024-03-23T03:04:12;7.20;99.90
25568;DHT22;13455;51.480;7.594;2024-03-23T03:06:38;7.20;99.90
25568;DHT22;13455;51.480;7.594;2024-03-23T03:09:03;7.20;99.90
25568;DHT22;13455;51.480;7.594;2024-03-23T03:11:30;7.10;99.90
25568;DHT22;13455;51.480;7.594;2024-03-23T03:13:55;7.10;99.90
25568;DHT22;13455;51.480;7.594;2024-03-23T03:16:21;7.10;99.90
25568;DHT22;13455;51.480;7.594;2024-03-23T03:18:47;7.10;99.90
25568;DHT22;13455;51.480;7.594;2024-03-23T03:21:12;7.00;99.90
25568;DHT22;13455;51.480;7.594;2024-03-23T03:23:39;7.00;99.90
25568;DHT22;13455;51.480;7.594;2024-03-23T03:26:05;6.90;99.90
25568;DHT22;13455;51.480;7.594;2024-03-23T03:28:31;7.00;99.90
25568;DHT22;13455;51.480;7.594;2024-03-23T03:30:58;6.90;99.90
25568;DHT22;13455;51.480;7.594;2024-03-23T03:33:25;7.00;99.90
25568;DHT22;13455;51.480;7.594;2024-03-23T03:35:50;6.90;99.90
25568;DHT22;13455;51.480;7.594;2024-03-23T03:38:18;6.90;99.90
25568;DHT22;13455;51.480;7.594;2024-03-23T03:40:43;7.00;99.90
25568;DHT22;13455;51.480;7.594;2024-03-23T03:43:09;6.90;99.90
25568;DHT22;13455;51.480;7.594;2024-03-23T03:45:35;7.00;99.90
25568;DHT22;13455;51.480;7.594;2024-03-23T03:48:00;6.90;99.90
25568;DHT22;13455;51.480;7.594;2024-03-23T03:50:26;6.90;99.90
25568;DHT22;13455;51.480;7.594;2024-03-23T03:52:52;7.00;99.90
25568;DHT22;13455;51.480;7.594;2024-03-23T03:55:17;7.00;99.90
25568;DHT22;13455;51.480;7.594;2024-03-23T03:57:43;7.00;99.90
25568;DHT22;13455;51.480;7.594;2024-03-23T04:00:09;7.00;99.90
25568;DHT22;13455;51.480;7.594;2024-03-23T04:02:37;7.00;99.90
25568;DHT22;13455;51.480;7.594;2024-03-23T04:05:03;6.90;99.90
25568;DHT22;13455;51.480;7.594;2024-03-23T04:07:28;6.90;99.90
25568;DHT22;13455;51.480;7.594;2024-03-23T04:09:54;6.90;99.90
25568;DHT22;13455;51.480;7.594;2024-03-23T04:12:20;6.90;99.90
25568;DHT22;13455;51.480;7.594;2024-03-23T04:14:46;6.90;99.90
25568;DHT22;13455;51.480;7.594;2024-03-23T04:17:11;6.90;99.90
25568;DHT22;13455;51.480;7.594;2024-03-23T04:19:37;7.00;99.90
25568;DHT22;13455;51.480;7.594;2024-03-23T04:22:03;6.80;99.90
25568;DHT22;13455;51.480;7.594;2024-03-23T04:24:29;6.80;99.90
25568;DHT22;13455;51.480;7.594;2024-03-23T04:26:55;6.80;99.90
25568;DHT22;13455;51.480;7.594;2024-03-23T04:29:22;6.80;99.90
25568;DHT22;13455;51.480;7.594;2024-03-23T04:31:47;6.80;99.90
25568;DHT22;13455;51.480;7.594;2024-03-23T04:34:13;6.80;99.90
25568;DHT22;13455;51.480;7.594;2024-03-23T04:36:39;6.80;99.90
25568;DHT22;13455;51.480;7.594;2024-03-23T04:39:05;6.90;99.90
25568;DHT22;13455;51.480;7.594;2024-03-23T04:41:34;6.80;99.90
25568;DHT22;13455;51.480;7.594;2024-03-23T04:44:00;6.80;99.90
25568;DHT22;13455;51.480;7.594;2024-03-23T04:46:26;6.70;99.90
25568;DHT22;13455;51.480;7.594;2024-03-23T04:48:51;6.70;99.90
25568;DHT22;13455;51.480;7.594;2024-03-23T04:51:21;6.70;99.90
25568;DHT22;13455;51.480;7.594;2024-03-23T04:53:47;6.70;99.90
25568;DHT22;13455;51.480;7.594;2024-03-23T04:56:14;6.70;99.90
25568;DHT22;13455;51.480;7.594;2024-03-23T04:58:39;6.70;99.90
25568;DHT22;13455;51.480;7.594;2024-03-23T05:01:05;6.70;99.90
25568;DHT22;13455;51.480;7.594;2024-03-23T05:03:31;6.30;99.90
25568;DHT22;13455;51.480;7.594;2024-03-23T05:05:57;6.70;99.90
25568;DHT22;13455;51.480;7.594;2024-03-23T05:08:23;6.70;99.90
25568;DHT22;13455;51.480;7.594;2024-03-23T05:10:49;6.80;99.90
25568;DHT22;13455;51.480;7.594;2024-03-23T05:13:15;6.70;99.90
25568;DHT22;13455;51.480;7.594;2024-03-23T05:15:41;6.70;99.90
25568;DHT22;13455;51.480;7.594;2024-03-23T05:18:07;6.60;99.90
25568;DHT22;13455;51.480;7.594;2024-03-23T05:20:32;6.50;99.90
25568;DHT22;13455;51.480;7.594;2024-03-23T05:22:58;7.30;99.90
25568;DHT22;13455;51.480;7.594;2024-03-23T05:25:24;6.50;99.90
25568;DHT22;13455;51.480;7.594;2024-03-23T05:27:50;6.80;99.90
25568;DHT22;13455;51.480;7.594;2024-03-23T05:30:15;6.50;99.90
25568;DHT22;13455;51.480;7.594;2024-03-23T05:32:41;6.50;99.90
25568;DHT22;13455;51.480;7.594;2024-03-23T05:35:08;6.40;99.90
25568;DHT22;13455;51.480;7.594;2024-03-23T05:37:34;6.40;99.90
25568;DHT22;13455;51.480;7.594;2024-03-23T05:40:00;6.50;99.90
25568;DHT22;13455;51.480;7.594;2024-03-23T05:42:26;6.40;99.90
25568;DHT22;13455;51.480;7.594;2024-03-23T05:44:52;6.40;99.90
25568;DHT22;13455;51.480;7.594;2024-03-23T05:47:18;6.40;99.90
25568;DHT22;13455;51.480;7.594;2024-03-23T05:49:45;6.40;99.90
25568;DHT22;13455;51.480;7.594;2024-03-23T05:52:11;6.30;99.90
25568;DHT22;13455;51.480;7.594;2024-03-23T05:54:37;6.30;99.90
25568;DHT22;13455;51.480;7.594;2024-03-23T05:57:03;6.30;99.90
25568;DHT22;13455;51.480;7.594;2024-03-23T05:59:29;6.30;99.90
25568;DHT22;13455;51.480;7.594;2024-03-23T06:01:55;6.20;99.90
25568;DHT22;13455;51.480;7.594;2024-03-23T06:04:21;7.00;99.90
25568;DHT22;13455;51.480;7.594;2024-03-23T06:06:49;6.30;99.90
25568;DHT22;13455;51.480;7.594;2024-03-23T06:09:15;6.30;99.90
25568;DHT22;13455;51.480;7.594;2024-03-23T06:11:41;6.30;99.90
25568;DHT22;13455;51.480;7.594;2024-03-23T06:14:06;6.30;99.90
25568;DHT22;13455;51.480;7.594;2024-03-23T06:16:32;6.30;99.90
25568;DHT22;13455;51.480;7.594;2024-03-23T06:18:58;6.30;99.90
25568;DHT22;13455;51.480;7.594;2024-03-23T06:21:24;6.30;99.90
25568;DHT22;13455;51.480;7.594;2024-03-23T06:23:53;6.30;99.90
25568;DHT22;13455;51.480;7.594;2024-03-23T06:26:20;6.30;99.90
25568;DHT22;13455;51.480;7.594;2024-03-23T06:28:47;6.30;99.90
25568;DHT22;13455;51.480;7.594;2024-03-23T06:31:12;6.40;99.90
25568;DHT22;13455;51.480;7.594;2024-03-23T06:33:38;6.30;99.90
25568;DHT22;13455;51.480;7.594;2024-03-23T06:36:05;6.30;99.90
25568;DHT22;13455;51.480;7.594;2024-03-23T06:38:31;6.30;99.90
25568;DHT22;13455;51.480;7.594;2024-03-23T06:40:57;6.30;99.90
25568;DHT22;13455;51.480;7.594;2024-03-23T06:43:23;6.40;99.90
25568;DHT22;13455;51.480;7.594;2024-03-23T06:45:55;6.30;99.90
25568;DHT22;13455;51.480;7.594;2024-03-23T06:48:21;6.30;99.90
25568;DHT22;13455;51.480;7.594;2024-03-23T06:50:47;6.40;99.90
25568;DHT22;13455;51.480;7.594;2024-03-23T06:53:14;6.40;99.90
25568;DHT22;13455;51.480;7.594;2024-03-23T06:55:40;6.30;99.90
25568;DHT22;13455;51.480;7.594;2024-03-23T06:58:06;6.40;99.90
25568;DHT22;13455;51.480;7.594;2024-03-23T07:00:32;6.30;99.90
25568;DHT22;13455;51.480;7.594;2024-03-23T07:02:59;6.40;99.90
25568;DHT22;13455;51.480;7.594;2024-03-23T07:05:25;6.40;99.90
25568;DHT22;13455;51.480;7.594;2024-03-23T07:07:50;6.40;99.90
25568;DHT22;13455;51.480;7.594;2024-03-23T07:10:17;6.40;99.90
25568;DHT22;13455;51.480;7.594;2024-03-23T07:12:43;6.50;99.90
25568;DHT22;13455;51.480;7.594;2024-03-23T07:15:09;6.50;99.90
25568;DHT22;13455;51.480;7.594;2024-03-23T07:49:20;7.20;99.90
25568;DHT22;13455;51.480;7.594;2024-03-23T07:51:46;8.10;99.90
25568;DHT22;13455;51.480;7.594;2024-03-23T07:54:11;7.20;99.90
25568;DHT22;13455;51.480;7.594;2024-03-23T07:56:37;7.40;99.90
25568;DHT22;13455;51.480;7.594;2024-03-23T07:59:03;7.50;99.90
25568;DHT22;13455;51.480;7.594;2024-03-23T08:01:29;7.60;99.90
25568;DHT22;13455;51.480;7.594;2024-03-23T08:03:55;7.70;99.90
25568;DHT22;13455;51.480;7.594;2024-03-23T08:06:21;7.70;99.90
25568;DHT22;13455;51.480;7.594;2024-03-23T08:08:52;8.20;99.90
25568;DHT22;13455;51.480;7.594;2024-03-23T08:11:25;7.80;99.90
25568;DHT22;13455;51.480;7.594;2024-03-23T08:13:51;8.20;99.90
25568;DHT22;13455;51.480;7.594;2024-03-23T08:16:17;8.00;99.90
25568;DHT22;13455;51.480;7.594;2024-03-23T08:18:42;8.10;99.90
25568;DHT22;13455;51.480;7.594;2024-03-23T08:21:08;8.30;99.90
25568;DHT22;13455;51.480;7.594;2024-03-23T08:23:34;8.30;99.90
25568;DHT22;13455;51.480;7.594;2024-03-23T08:26:06;8.40;99.90
25568;DHT22;13455;51.480;7.594;2024-03-23T08:28:32;8.50;99.90
25568;DHT22;13455;51.480;7.594;2024-03-23T08:31:01;8.60;99.90
25568;DHT22;13455;51.480;7.594;2024-03-23T08:33:28;8.70;99.90
25568;DHT22;13455;51.480;7.594;2024-03-23T08:41:05;8.80;99.90
25568;DHT22;13455;51.480;7.594;2024-03-23T08:43:41;8.90;99.90
25568;DHT22;13455;51.480;7.594;2024-03-23T08:48:45;9.00;99.90
25568;DHT22;13455;51.480;7.594;2024-03-23T08:51:15;9.10;99.90
25568;DHT22;13455;51.480;7.594;2024-03-23T08:53:42;9.10;99.90
25568;DHT22;13455;51.480;7.594;2024-03-23T08:56:09;9.30;99.90
25568;DHT22;13455;51.480;7.594;2024-03-23T08:58:36;9.30;99.90
25568;DHT22;13455;51.480;7.594;2024-03-23T09:01:12;9.40;99.90
25568;DHT22;13455;51.480;7.594;2024-03-23T09:03:39;9.20;99.90
25568;DHT22;13455;51.480;7.594;2024-03-23T09:08:34;9.60;99.90
25568;DHT22;13455;51.480;7.594;2024-03-23T09:15:58;10.30;99.90
25568;DHT22;13455;51.480;7.594;2024-03-23T09:18:23;10.10;99.90
25568;DHT22;13455;51.480;7.594;2024-03-23T09:20:49;10.10;99.90
25568;DHT22;13455;51.480;7.594;2024-03-23T09:23:15;10.40;99.90
25568;DHT22;13455;51.480;7.594;2024-03-23T09:25:41;11.00;99.90
25568;DHT22;13455;51.480;7.594;2024-03-23T09:28:07;10.20;99.90
25568;DHT22;13455;51.480;7.594;2024-03-23T09:30:36;9.90;99.90
25568;DHT22;13455;51.480;7.594;2024-03-23T09:33:11;10.30;99.90
25568;DHT22;13455;51.480;7.594;2024-03-23T09:35:41;10.50;99.90
25568;DHT22;13455;51.480;7.594;2024-03-23T09:38:07;10.70;99.90
25568;DHT22;13455;51.480;7.594;2024-03-23T09:40:44;10.00;99.90
25568;DHT22;13455;51.480;7.594;2024-03-23T09:48:10;10.30;99.90
25568;DHT22;13455;51.480;7.594;2024-03-23T09:50:39;9.90;99.90
25568;DHT22;13455;51.480;7.594;2024-03-23T09:53:12;10.70;99.90
25568;DHT22;13455;51.480;7.594;2024-03-23T09:55:39;9.80;99.90
25568;DHT22;13455;51.480;7.594;2024-03-23T09:58:05;9.90;99.90
25568;DHT22;13455;51.480;7.594;2024-03-23T10:00:32;9.70;99.90
25568;DHT22;13455;51.480;7.594;2024-03-23T10:15:20;9.90;99.90
25568;DHT22;13455;51.480;7.594;2024-03-23T10:17:46;10.00;99.90
25568;DHT22;13455;51.480;7.594;2024-03-23T10:20:12;10.20;99.90
25568;DHT22;13455;51.480;7.594;2024-03-23T10:27:35;10.50;99.90
25568;DHT22;13455;51.480;7.594;2024-03-23T10:30:08;10.90;99.90
25568;DHT22;13455;51.480;7.594;2024-03-23T10:32:37;10.50;99.90
25568;DHT22;13455;51.480;7.594;2024-03-23T10:37:49;10.80;99.90
25568;DHT22;13455;51.480;7.594;2024-03-23T10:40:15;10.80;99.90
25568;DHT22;13455;51.480;7.594;2024-03-23T10:42:41;11.00;99.90
25568;DHT22;13455;51.480;7.594;2024-03-23T10:47:35;11.40;99.90
25568;DHT22;13455;51.480;7.594;2024-03-23T10:52:34;11.60;99.90
25568;DHT22;13455;51.480;7.594;2024-03-23T10:55:04;11.70;99.90
25568;DHT22;13455;51.480;7.594;2024-03-23T10:57:43;11.80;99.90
25568;DHT22;13455;51.480;7.594;2024-03-23T11:00:10;12.10;99.90
25568;DHT22;13455;51.480;7.594;2024-03-23T11:02:36;12.20;99.90
25568;DHT22;13455;51.480;7.594;2024-03-23T11:07:31;12.20;99.90
25568;DHT22;13455;51.480;7.594;2024-03-23T11:09:57;12.60;99.90
25568;DHT22;13455;51.480;7.594;2024-03-23T11:17:21;12.40;99.90
25568;DHT22;13455;51.480;7.594;2024-03-23T11:25:14;12.80;99.90
25568;DHT22;13455;51.480;7.594;2024-03-23T11:27:40;12.80;99.90
25568;DHT22;13455;51.480;7.594;2024-03-23T11:30:22;12.70;99.90
25568;DHT22;13455;51.480;7.594;2024-03-23T11:32:52;12.10;99.90
25568;DHT22;13455;51.480;7.594;2024-03-23T11:35:45;11.60;99.90
25568;DHT22;13455;51.480;7.594;2024-03-23T11:38:15;11.10;99.90
25568;DHT22;13455;51.480;7.594;2024-03-23T11:43:14;9.80;99.90
25568;DHT22;13455;51.480;7.594;2024-03-23T11:50:34;9.30;99.90
25568;DHT22;13455;51.480;7.594;2024-03-23T11:55:46;9.60;99.90
25568;DHT22;13455;51.480;7.594;2024-03-23T11:58:13;9.70;99.90
25568;DHT22;13455;51.480;7.594;2024-03-23T12:00:39;9.90;99.90
25568;DHT22;13455;51.480;7.594;2024-03-23T12:03:05;10.20;99.90
25568;DHT22;13455;51.480;7.594;2024-03-23T12:05:34;10.50;99.90
25568;DHT22;13455;51.480;7.594;2024-03-23T12:08:19;10.70;99.90
25568;DHT22;13455;51.480;7.594;2024-03-23T12:11:05;10.90;99.90
25568;DHT22;13455;51.480;7.594;2024-03-23T12:13:31;11.10;99.90
25568;DHT22;13455;51.480;7.594;2024-03-23T12:16:18;11.30;99.90
25568;DHT22;13455;51.480;7.594;2024-03-23T12:18:49;11.70;99.90
25568;DHT22;13455;51.480;7.594;2024-03-23T12:21:15;12.00;99.90
25568;DHT22;13455;51.480;7.594;2024-03-23T12:23:42;12.30;99.90
25568;DHT22;13455;51.480;7.594;2024-03-23T12:26:11;12.50;99.90
25568;DHT22;13455;51.480;7.594;2024-03-23T12:28:37;12.60;99.90
25568;DHT22;13455;51.480;7.594;2024-03-23T12:31:03;13.00;99.90
25568;DHT22;13455;51.480;7.594;2024-03-23T12:33:29;13.10;99.90
25568;DHT22;13455;51.480;7.594;2024-03-23T12:35:54;13.40;99.90
25568;DHT22;13455;51.480;7.594;2024-03-23T12:38:20;13.40;99.90
25568;DHT22;13455;51.480;7.594;2024-03-23T12:40:49;13.30;99.90
25568;DHT22;13455;51.480;7.594;2024-03-23T12:43:18;13.40;99.90
25568;DHT22;13455;51.480;7.594;2024-03-23T12:45:48;13.40;99.90
25568;DHT22;13455;51.480;7.594;2024-03-23T12:48:14;13.30;99.90
25568;DHT22;13455;51.480;7.594;2024-03-23T12:50:40;13.30;99.90
25568;DHT22;13455;51.480;7.594;2024-03-23T12:53:05;13.10;99.90
25568;DHT22;13455;51.480;7.594;2024-03-23T12:55:31;13.10;99.90
25568;DHT22;13455;51.480;7.594;2024-03-23T12:57:57;13.20;99.90
25568;DHT22;13455;51.480;7.594;2024-03-23T13:00:23;12.80;99.90
25568;DHT22;13455;51.480;7.594;2024-03-23T13:02:49;12.70;99.90
25568;DHT22;13455;51.480;7.594;2024-03-23T13:05:15;12.50;99.90
25568;DHT22;13455;51.480;7.594;2024-03-23T13:07:40;12.40;99.90
25568;DHT22;13455;51.480;7.594;2024-03-23T13:10:06;12.30;99.90
25568;DHT22;13455;51.480;7.594;2024-03-23T13:12:33;12.30;99.90
25568;DHT22;13455;51.480;7.594;2024-03-23T13:14:59;12.50;99.90
25568;DHT22;13455;51.480;7.594;2024-03-23T13:17:26;12.80;99.90
25568;DHT22;13455;51.480;7.594;2024-03-23T13:19:53;13.10;99.90
25568;DHT22;13455;51.480;7.594;2024-03-23T13:22:19;13.80;99.90
25568;DHT22;13455;51.480;7.594;2024-03-23T13:24:44;14.40;99.90
25568;DHT22;13455;51.480;7.594;2024-03-23T13:27:10;14.50;99.90
25568;DHT22;13455;51.480;7.594;2024-03-23T13:29:36;14.80;99.90
25568;DHT22;13455;51.480;7.594;2024-03-23T13:32:03;14.80;99.90
25568;DHT22;13455;51.480;7.594;2024-03-23T13:34:29;15.30;99.90
25568;DHT22;13455;51.480;7.594;2024-03-23T13:39:25;15.20;99.90
25568;DHT22;13455;51.480;7.594;2024-03-23T13:41:51;15.30;99.90
25568;DHT22;13455;51.480;7.594;2024-03-23T13:44:16;14.90;99.90
25568;DHT22;13455;51.480;7.594;2024-03-23T13:46:43;14.60;99.90
25568;DHT22;13455;51.480;7.594;2024-03-23T13:49:24;14.10;99.90
25568;DHT22;13455;51.480;7.594;2024-03-23T13:51:52;13.90;99.90
25568;DHT22;13455;51.480;7.594;2024-03-23T13:54:17;13.00;99.90
25568;DHT22;13455;51.480;7.594;2024-03-23T13:59:09;12.20;99.90
25568;DHT22;13455;51.480;7.594;2024-03-23T14:04:01;12.10;99.90
25568;DHT22;13455;51.480;7.594;2024-03-23T14:06:27;12.70;99.90
25568;DHT22;13455;51.480;7.594;2024-03-23T14:08:53;13.10;99.90
25568;DHT22;13455;51.480;7.594;2024-03-23T14:11:19;13.40;99.90
25568;DHT22;13455;51.480;7.594;2024-03-23T14:13:45;13.60;99.90
25568;DHT22;13455;51.480;7.594;2024-03-23T14:16:10;13.80;99.90
25568;DHT22;13455;51.480;7.594;2024-03-23T14:18:36;14.10;99.90
25568;DHT22;13455;51.480;7.594;2024-03-23T14:21:02;13.80;99.90
25568;DHT22;13455;51.480;7.594;2024-03-23T14:23:30;13.50;99.90
25568;DHT22;13455;51.480;7.594;2024-03-23T14:25:58;13.40;99.90
25568;DHT22;13455;51.480;7.594;2024-03-23T14:28:24;13.70;99.90
25568;DHT22;13455;51.480;7.594;2024-03-23T14:30:51;13.80;99.90
25568;DHT22;13455;51.480;7.594;2024-03-23T14:33:17;13.80;99.90
25568;DHT22;13455;51.480;7.594;2024-03-23T14:38:09;13.70;99.90
25568;DHT22;13455;51.480;7.594;2024-03-23T14:40:35;13.40;99.90
25568;DHT22;13455;51.480;7.594;2024-03-23T14:43:01;13.40;99.90
25568;DHT22;13455;51.480;7.594;2024-03-23T14:47:54;13.90;99.90
25568;DHT22;13455;51.480;7.594;2024-03-23T14:52:47;14.10;99.90
25568;DHT22;13455;51.480;7.594;2024-03-23T14:55:12;13.50;99.90
25568;DHT22;13455;51.480;7.594;2024-03-23T15:00:10;13.40;99.90
25568;DHT22;13455;51.480;7.594;2024-03-23T15:02:37;13.10;99.90
25568;DHT22;13455;51.480;7.594;2024-03-23T15:05:03;12.80;99.90
25568;DHT22;13455;51.480;7.594;2024-03-23T15:07:31;12.60;99.90
25568;DHT22;13455;51.480;7.594;2024-03-23T15:09:56;12.40;99.90
25568;DHT22;13455;51.480;7.594;2024-03-23T15:12:22;12.30;99.90
25568;DHT22;13455;51.480;7.594;2024-03-23T15:14:48;12.30;99.90
25568;DHT22;13455;51.480;7.594;2024-03-23T15:17:14;12.10;99.90
25568;DHT22;13455;51.480;7.594;2024-03-23T15:19:39;12.00;99.90
25568;DHT22;13455;51.480;7.594;2024-03-23T15:22:07;11.90;99.90
25568;DHT22;13455;51.480;7.594;2024-03-23T15:24:34;11.70;99.90
25568;DHT22;13455;51.480;7.594;2024-03-23T15:27:01;11.60;99.90
25568;DHT22;13455;51.480;7.594;2024-03-23T15:29:27;11.90;99.90
25568;DHT22;13455;51.480;7.594;2024-03-23T15:31:53;11.80;99.90
25568;DHT22;13455;51.480;7.594;2024-03-23T15:34:19;11.60;99.90
25568;DHT22;13455;51.480;7.594;2024-03-23T15:36:50;11.50;99.90
25568;DHT22;13455;51.480;7.594;2024-03-23T15:39:19;11.50;99.90
25568;DHT22;13455;51.480;7.594;2024-03-23T15:41:48;11.80;99.90
25568;DHT22;13455;51.480;7.594;2024-03-23T15:44:14;11.30;99.90
25568;DHT22;13455;51.480;7.594;2024-03-23T15:46:40;11.30;99.90
25568;DHT22;13455;51.480;7.594;2024-03-23T15:49:06;11.70;99.90
25568;DHT22;13455;51.480;7.594;2024-03-23T15:51:32;11.00;99.90
25568;DHT22;13455;51.480;7.594;2024-03-23T15:54:02;11.40;99.90
25568;DHT22;13455;51.480;7.594;2024-03-23T16:03:59;11.20;99.90
25568;DHT22;13455;51.480;7.594;2024-03-23T16:06:25;11.60;99.90
25568;DHT22;13455;51.480;7.594;2024-03-23T16:08:51;12.40;99.90
25568;DHT22;13455;51.480;7.594;2024-03-23T16:11:18;14.10;99.90
25568;DHT22;13455;51.480;7.594;2024-03-23T16:16:09;18.10;99.90
25568;DHT22;13455;51.480;7.594;2024-03-23T16:18:37;17.90;99.90
25568;DHT22;13455;51.480;7.594;2024-03-23T16:33:27;13.90;95.20
25568;DHT22;13455;51.480;7.594;2024-03-23T16:38:33;13.10;96.10
25568;DHT22;13455;51.480;7.594;2024-03-23T16:41:05;12.70;96.70
25568;DHT22;13455;51.480;7.594;2024-03-23T16:43:36;12.40;97.40
25568;DHT22;13455;51.480;7.594;2024-03-23T16:48:30;11.70;99.20
25568;DHT22;13455;51.480;7.594;2024-03-23T16:50:58;11.40;99.60
25568;DHT22;13455;51.480;7.594;2024-03-23T16:53:24;11.40;99.90
25568;DHT22;13455;51.480;7.594;2024-03-23T16:56:03;11.20;99.90
25568;DHT22;13455;51.480;7.594;2024-03-23T16:58:33;11.00;99.90
25568;DHT22;13455;51.480;7.594;2024-03-23T17:01:09;11.00;99.90
25568;DHT22;13455;51.480;7.594;2024-03-23T17:08:33;10.60;99.90
25568;DHT22;13455;51.480;7.594;2024-03-23T17:11:00;10.40;99.90
25568;DHT22;13455;51.480;7.594;2024-03-23T17:13:29;10.30;99.90
25568;DHT22;13455;51.480;7.594;2024-03-23T17:15:55;10.00;99.90
25568;DHT22;13455;51.480;7.594;2024-03-23T17:18:21;10.00;99.90
25568;DHT22;13455;51.480;7.594;2024-03-23T17:20:46;9.80;99.90
25568;DHT22;13455;51.480;7.594;2024-03-23T17:23:12;9.90;99.90
25568;DHT22;13455;51.480;7.594;2024-03-23T17:25:38;9.80;99.90
25568;DHT22;13455;51.480;7.594;2024-03-23T17:28:04;9.50;99.90
25568;DHT22;13455;51.480;7.594;2024-03-23T17:30:30;9.40;99.90
25568;DHT22;13455;51.480;7.594;2024-03-23T17:32:56;9.30;99.90
25568;DHT22;13455;51.480;7.594;2024-03-23T17:35:21;9.10;99.90
25568;DHT22;13455;51.480;7.594;2024-03-23T17:37:47;9.00;99.90
25568;DHT22;13455;51.480;7.594;2024-03-23T17:40:14;8.90;99.90
25568;DHT22;13455;51.480;7.594;2024-03-23T17:42:41;8.80;99.90
25568;DHT22;13455;51.480;7.594;2024-03-23T17:45:08;8.80;99.90
25568;DHT22;13455;51.480;7.594;2024-03-23T17:47:43;8.60;99.90
25568;DHT22;13455;51.480;7.594;2024-03-23T17:50:09;8.50;99.90
25568;DHT22;13455;51.480;7.594;2024-03-23T17:52:35;8.20;99.90
25568;DHT22;13455;51.480;7.594;2024-03-23T17:55:02;8.60;99.90
25568;DHT22;13455;51.480;7.594;2024-03-23T17:57:27;8.50;99.90
25568;DHT22;13455;51.480;7.594;2024-03-23T17:59:53;8.60;99.90
25568;DHT22;13455;51.480;7.594;2024-03-23T18:02:19;8.20;99.90
25568;DHT22;13455;51.480;7.594;2024-03-23T18:04:46;8.20;99.90
25568;DHT22;13455;51.480;7.594;2024-03-23T18:09:38;7.90;99.90
25568;DHT22;13455;51.480;7.594;2024-03-23T18:19:23;7.80;99.90
25568;DHT22;13455;51.480;7.594;2024-03-23T18:21:49;7.70;99.90
25568;DHT22;13455;51.480;7.594;2024-03-23T19:30:44;6.10;99.90
25568;DHT22;13455;51.480;7.594;2024-03-23T19:33:09;6.10;99.90
25568;DHT22;13455;51.480;7.594;2024-03-23T19:38:02;6.10;99.90
25568;DHT22;13455;51.480;7.594;2024-03-23T19:40:28;6.00;99.90
25568;DHT22;13455;51.480;7.594;2024-03-23T19:42:54;5.90;99.90
25568;DHT22;13455;51.480;7.594;2024-03-23T19:45:20;5.90;99.90
25568;DHT22;13455;51.480;7.594;2024-03-23T19:47:46;5.90;99.90
25568;DHT22;13455;51.480;7.594;2024-03-23T19:50:12;6.40;99.90
25568;DHT22;13455;51.480;7.594;2024-03-23T19:52:38;5.50;99.90
25568;DHT22;13455;51.480;7.594;2024-03-23T19:55:04;6.10;99.90
25568;DHT22;13455;51.480;7.594;2024-03-23T19:57:30;5.80;99.90
25568;DHT22;13455;51.480;7.594;2024-03-23T19:59:56;5.60;99.90
25568;DHT22;13455;51.480;7.594;2024-03-23T20:02:22;5.80;99.90
25568;DHT22;13455;51.480;7.594;2024-03-23T20:04:48;5.60;99.90
25568;DHT22;13455;51.480;7.594;2024-03-23T20:16:59;5.60;99.90
25568;DHT22;13455;51.480;7.594;2024-03-23T20:19:25;5.60;99.90
25568;DHT22;13455;51.480;7.594;2024-03-23T20:21:51;5.50;99.90
25568;DHT22;13455;51.480;7.594;2024-03-23T20:39:00;5.50;99.90
25568;DHT22;13455;51.480;7.594;2024-03-23T20:41:26;5.50;99.90
25568;DHT22;13455;51.480;7.594;2024-03-23T20:43:52;5.50;99.90
25568;DHT22;13455;51.480;7.594;2024-03-23T20:51:15;5.40;99.90
25568;DHT22;13455;51.480;7.594;2024-03-23T20:53:41;5.40;99.90
25568;DHT22;13455;51.480;7.594;2024-03-23T21:20:55;5.30;99.90
25568;DHT22;13455;51.480;7.594;2024-03-23T21:23:25;5.30;99.90